Time;durP1;ratioP1;P1;durP2;ratioP2;P2;SDS_P1;SDS_P2;PMS_P1;PMS_P2;Temp;Humidity;BMP_temperature;BMP_pressure;BME280_temperature;BME280_humidity;BME280_pressure;Samples;Min_cycle;Max_cycle;Signal;HPM_P1;HPM_P2
2021/11/23 00:00:00;;;;;;;56.40;33.75;;;;;;;;;;4922365;29;20024;-89
2021/11/23 00:02:27;;;;;;;50.28;32.95;;;;;;;;;;4922329;29;20032;-90
2021/11/23 00:04:53;;;;;;;52.95;32.47;;;;;;;;;;4922469;29;20411;-89
2021/11/23 00:07:19;;;;;;;53.63;33.70;;;;;;;;;;4905148;29;20036;-89
2021/11/23 00:09:45;;;;;;;58.08;34.50;;;;;;;;;;4921326;29;20376;-89
2021/11/23 00:12:11;;;;;;;51.83;32.35;;;;;;;;;;4921864;29;20055;-91
2021/11/23 00:14:37;;;;;;;52.85;32.28;;;;;;;;;;4905308;29;20031;-91
2021/11/23 00:17:03;;;;;;;52.50;32.95;;;;;;;;;;4922085;29;20076;-91
2021/11/23 00:19:29;;;;;;;55.60;33.33;;;;;;;;;;4921845;29;20471;-90
2021/11/23 00:21:55;;;;;;;50.92;32.35;;;;;;;;;;4922028;29;20036;-90
2021/11/23 00:24:22;;;;;;;51.58;32.30;;;;;;;;;;4922182;29;20032;-90
2021/11/23 00:26:48;;;;;;;52.42;32.80;;;;;;;;;;4921189;29;20044;-91
2021/11/23 00:29:14;;;;;;;50.40;31.42;;;;;;;;;;4905185;29;20402;-90
2021/11/23 00:31:40;;;;;;;51.67;31.70;;;;;;;;;;4905017;29;20020;-89
2021/11/23 00:34:06;;;;;;;51.60;31.25;;;;;;;;;;4921467;29;20024;-89
2021/11/23 00:36:44;;;;;;;53.42;32.33;;;;;;;;;;4904982;29;20128;-89
2021/11/23 00:39:10;;;;;;;54.17;32.55;;;;;;;;;;4921881;29;20032;-88
2021/11/23 00:41:36;;;;;;;52.45;31.52;;;;;;;;;;4904889;29;20530;-90
2021/11/23 00:44:03;;;;;;;50.67;32.53;;;;;;;;;;4904908;29;20056;-90
2021/11/23 00:46:29;;;;;;;49.17;31.83;;;;;;;;;;4921782;29;20028;-88
2021/11/23 00:48:55;;;;;;;54.35;33.33;;;;;;;;;;4921619;29;20044;-89
2021/11/23 00:51:21;;;;;;;51.80;31.23;;;;;;;;;;4921346;29;20035;-90
2021/11/23 01:02:58;;;;;;;47.88;30.02;;;;;;;;;;4921524;29;20035;-89
2021/11/23 01:05:24;;;;;;;51.47;31.35;;;;;;;;;;4921305;29;20415;-89
2021/11/23 01:07:50;;;;;;;49.78;30.75;;;;;;;;;;4921316;29;20040;-89
2021/11/23 01:10:16;;;;;;;45.83;30.25;;;;;;;;;;4921507;29;20179;-89
2021/11/23 01:12:42;;;;;;;49.67;30.90;;;;;;;;;;4920999;29;20415;-89
2021/11/23 01:15:09;;;;;;;50.63;31.38;;;;;;;;;;4904745;29;20036;-90
2021/11/23 01:17:35;;;;;;;47.97;31.35;;;;;;;;;;4921460;29;20100;-89
2021/11/23 01:20:01;;;;;;;48.97;30.83;;;;;;;;;;4904622;29;20027;-89
2021/11/23 01:22:27;;;;;;;47.25;29.83;;;;;;;;;;4907809;29;20032;-89
2021/11/23 01:24:53;;;;;;;47.90;29.83;;;;;;;;;;4924907;29;20028;-89
2021/11/23 01:27:20;;;;;;;47.58;30.45;;;;;;;;;;4924879;29;20032;-88
2021/11/23 01:29:46;;;;;;;53.58;30.75;;;;;;;;;;4925105;29;20072;-89
2021/11/23 01:32:12;;;;;;;50.05;31.17;;;;;;;;;;4924760;29;20022;-88
2021/11/23 01:34:38;;;;;;;48.42;30.02;;;;;;;;;;4908127;29;20070;-88
2021/11/23 01:37:04;;;;;;;51.33;31.45;;;;;;;;;;4908397;29;20040;-89
2021/11/23 01:39:30;;;;;;;49.50;30.30;;;;;;;;;;4924841;29;20032;-89
2021/11/23 01:41:56;;;;;;;49.28;30.88;;;;;;;;;;4924552;29;20028;-89
2021/11/23 01:44:22;;;;;;;49.75;30.50;;;;;;;;;;4924572;29;20028;-88
2021/11/23 01:46:48;;;;;;;51.63;31.67;;;;;;;;;;4907815;29;20036;-89
2021/11/23 01:49:15;;;;;;;52.83;31.52;;;;;;;;;;4924795;29;20068;-89
2021/11/23 01:51:41;;;;;;;50.53;30.52;;;;;;;;;;4924752;29;20035;-90
2021/11/23 02:03:18;;;;;;;50.92;31.67;;;;;;;;;;4924517;29;20031;-91
2021/11/23 02:05:44;;;;;;;55.67;32.72;;;;;;;;;;4907605;29;20032;-92
2021/11/23 02:08:11;;;;;;;55.63;33.15;;;;;;;;;;4924307;29;20437;-90
2021/11/23 02:10:37;;;;;;;52.70;32.75;;;;;;;;;;4907703;29;20095;-89
2021/11/23 02:13:04;;;;;;;53.08;33.42;;;;;;;;;;4923780;29;20067;-90
2021/11/23 02:15:30;;;;;;;57.58;33.45;;;;;;;;;;4924286;29;20028;-88
2021/11/23 02:17:56;;;;;;;55.13;34.00;;;;;;;;;;4923992;29;20115;-89
2021/11/23 02:20:24;;;;;;;53.92;34.20;;;;;;;;;;4924135;29;20032;-89
2021/11/23 02:32:01;;;;;;;57.85;33.28;;;;;;;;;;4924205;29;20063;-90
2021/11/23 02:34:27;;;;;;;55.05;33.33;;;;;;;;;;4923135;29;20031;-91
2021/11/23 02:36:53;;;;;;;56.95;34.35;;;;;;;;;;4923607;29;20458;-90
2021/11/23 02:39:20;;;;;;;54.83;33.22;;;;;;;;;;4907037;29;20075;-90
2021/11/23 02:41:46;;;;;;;58.13;35.00;;;;;;;;;;4923524;29;20320;-89
2021/11/23 02:44:12;;;;;;;63.40;34.63;;;;;;;;;;4923487;29;20032;-90
2021/11/23 02:46:38;;;;;;;56.58;32.15;;;;;;;;;;4923509;29;20032;-89
2021/11/23 02:49:04;;;;;;;58.22;34.10;;;;;;;;;;4923869;29;20048;-89
2021/11/23 02:51:34;;;;;;;57.17;33.47;;;;;;;;;;4907336;29;20032;-89
2021/11/23 03:00:09;;;;;;;54.67;32.30;;;;;;;;;;4923365;29;20039;-89
2021/11/23 03:02:36;;;;;;;57.72;34.30;;;;;;;;;;4923217;29;20024;-88
2021/11/23 03:05:03;;;;;;;54.78;32.78;;;;;;;;;;4906667;29;20031;-89
2021/11/23 03:07:31;;;;;;;53.80;32.25;;;;;;;;;;4923208;29;20056;-88
2021/11/23 03:09:57;;;;;;;55.80;33.45;;;;;;;;;;4923259;29;20035;-88
2021/11/23 03:12:25;;;;;;;54.10;32.30;;;;;;;;;;4923150;29;20347;-88
2021/11/23 03:14:51;;;;;;;55.05;32.33;;;;;;;;;;4923262;29;20364;-90
2021/11/23 03:17:19;;;;;;;53.90;31.52;;;;;;;;;;4923091;29;20032;-89
2021/11/23 03:19:47;;;;;;;59.35;32.90;;;;;;;;;;4923294;29;20067;-89
2021/11/23 03:22:13;;;;;;;60.42;33.20;;;;;;;;;;4922868;29;20056;-88
2021/11/23 03:24:39;;;;;;;55.53;32.25;;;;;;;;;;4923166;29;20036;-89
2021/11/23 03:27:06;;;;;;;67.22;31.75;;;;;;;;;;4906081;29;20106;-89
2021/11/23 03:29:33;;;;;;;56.80;33.35;;;;;;;;;;4906069;29;20016;-91
2021/11/23 03:31:59;;;;;;;57.95;32.47;;;;;;;;;;4922670;29;20411;-89
2021/11/23 03:34:26;;;;;;;56.83;31.80;;;;;;;;;;4922688;29;20115;-90
2021/11/23 03:36:52;;;;;;;53.05;30.58;;;;;;;;;;4905960;29;20032;-89
2021/11/23 03:39:36;;;;;;;55.30;30.15;;;;;;;;;;4905708;29;20028;-88
2021/11/23 03:42:04;;;;;;;53.08;29.73;;;;;;;;;;4905767;29;20024;-89
2021/11/23 03:44:30;;;;;;;50.63;28.90;;;;;;;;;;4904817;29;20071;-89
2021/11/23 03:46:56;;;;;;;52.58;29.35;;;;;;;;;;4905603;29;20035;-89
2021/11/23 03:49:22;;;;;;;51.95;28.65;;;;;;;;;;4922569;29;20035;-90
2021/11/23 03:51:48;;;;;;;52.22;29.55;;;;;;;;;;4922248;29;20028;-89
2021/11/23 03:54:15;;;;;;;53.47;28.60;;;;;;;;;;4922009;29;20454;-89
2021/11/23 03:56:41;;;;;;;47.00;27.98;;;;;;;;;;4905543;29;20417;-90
2021/11/23 03:59:08;;;;;;;44.90;26.60;;;;;;;;;;4922464;29;20051;-91
2021/11/23 04:01:34;;;;;;;47.63;26.35;;;;;;;;;;4922302;29;20039;-90
2021/11/23 04:04:00;;;;;;;46.90;26.35;;;;;;;;;;4922069;29;20423;-90
2021/11/23 04:06:27;;;;;;;45.90;25.27;;;;;;;;;;4905551;29;20485;-89
2021/11/23 04:11:56;;;;;;;49.20;25.48;;;;;;;;;;4921754;29;20055;-90
2021/11/23 04:14:22;;;;;;;45.72;25.17;;;;;;;;;;4905442;29;20079;-90
2021/11/23 04:16:48;;;;;;;49.10;26.25;;;;;;;;;;4922044;29;20144;-89
2021/11/23 04:19:15;;;;;;;44.55;25.48;;;;;;;;;;4921827;29;20056;-89
2021/11/23 04:21:41;;;;;;;48.30;25.58;;;;;;;;;;4921779;29;20039;-89
2021/11/23 04:30:51;;;;;;;47.15;26.42;;;;;;;;;;4921990;29;20083;-89
2021/11/23 04:33:17;;;;;;;48.05;27.08;;;;;;;;;;4921594;29;20025;-90
2021/11/23 04:35:44;;;;;;;44.20;25.20;;;;;;;;;;4905308;29;20027;-89
2021/11/23 04:38:11;;;;;;;46.67;25.55;;;;;;;;;;4921859;29;20024;-90
2021/11/23 04:40:37;;;;;;;45.00;25.15;;;;;;;;;;4921416;29;20303;-90
2021/11/23 04:43:05;;;;;;;43.67;24.75;;;;;;;;;;4921763;29;20032;-89
2021/11/23 04:45:32;;;;;;;43.10;24.85;;;;;;;;;;4921303;29;20059;-89
2021/11/23 04:47:58;;;;;;;41.72;24.02;;;;;;;;;;4921113;29;20027;-89
2021/11/23 04:50:25;;;;;;;41.13;24.48;;;;;;;;;;4921925;29;20032;-89
2021/11/23 04:52:51;;;;;;;41.50;24.42;;;;;;;;;;4921639;29;20024;-89
2021/11/23 04:55:17;;;;;;;43.55;25.70;;;;;;;;;;4921417;29;20107;-89
2021/11/23 04:57:43;;;;;;;41.20;25.98;;;;;;;;;;4921212;29;20025;-89
2021/11/23 05:00:11;;;;;;;47.20;25.98;;;;;;;;;;4904794;29;20064;-90
2021/11/23 05:02:40;;;;;;;45.33;26.38;;;;;;;;;;4921639;29;20028;-89
2021/11/23 05:05:07;;;;;;;45.67;26.35;;;;;;;;;;4904561;29;20020;-88
2021/11/23 05:07:33;;;;;;;49.13;27.70;;;;;;;;;;4904738;29;20044;-88
2021/11/23 05:10:17;;;;;;;48.03;26.42;;;;;;;;;;4921185;29;20052;-89
2021/11/23 05:12:44;;;;;;;44.63;25.33;;;;;;;;;;4904741;29;20153;-89
2021/11/23 05:15:10;;;;;;;47.75;25.60;;;;;;;;;;4921222;29;20028;-88
2021/11/23 05:17:37;;;;;;;44.17;23.38;;;;;;;;;;4921407;29;20092;-89
2021/11/23 05:20:04;;;;;;;38.13;23.42;;;;;;;;;;4921368;29;20029;-89
2021/11/23 05:22:30;;;;;;;40.08;22.45;;;;;;;;;;4921256;29;20028;-88
2021/11/23 05:24:56;;;;;;;37.55;21.20;;;;;;;;;;4921136;29;20035;-88
2021/11/23 05:27:22;;;;;;;36.08;20.95;;;;;;;;;;4904597;29;20050;-89
2021/11/23 05:29:48;;;;;;;36.00;20.92;;;;;;;;;;4921071;29;20057;-89
2021/11/23 05:32:14;;;;;;;39.63;22.58;;;;;;;;;;4904720;29;20032;-89
2021/11/23 05:34:41;;;;;;;36.47;22.10;;;;;;;;;;4904723;29;20331;-90
2021/11/23 05:37:07;;;;;;;38.33;21.88;;;;;;;;;;4904396;29;20118;-89
2021/11/23 05:39:51;;;;;;;39.17;23.90;;;;;;;;;;4921463;29;20039;-88
2021/11/23 05:42:17;;;;;;;40.08;22.55;;;;;;;;;;4921225;29;20075;-87
2021/11/23 05:44:43;;;;;;;46.42;24.55;;;;;;;;;;4920784;29;20059;-88
2021/11/23 05:47:09;;;;;;;44.90;24.52;;;;;;;;;;4920723;29;20043;-89
2021/11/23 05:49:35;;;;;;;43.03;23.70;;;;;;;;;;4920806;29;20052;-88
2021/11/23 05:52:02;;;;;;;41.97;22.30;;;;;;;;;;4920826;29;20431;-90
2021/11/23 06:00:35;;;;;;;39.55;20.65;;;;;;;;;;4920962;29;20039;-89
2021/11/23 06:03:01;;;;;;;40.78;22.75;;;;;;;;;;4904279;29;20028;-88
2021/11/23 06:05:28;;;;;;;42.13;21.95;;;;;;;;;;4904305;29;20080;-88
2021/11/23 06:08:12;;;;;;;36.78;21.58;;;;;;;;;;4921027;29;20080;-89
2021/11/23 06:10:39;;;;;;;38.08;22.30;;;;;;;;;;4907428;29;20120;-90
2021/11/23 06:13:06;;;;;;;41.03;22.73;;;;;;;;;;4923863;29;20036;-89
2021/11/23 06:15:32;;;;;;;37.97;22.67;;;;;;;;;;4907408;29;20095;-90
2021/11/23 06:18:02;;;;;;;38.88;21.63;;;;;;;;;;4924003;29;20180;-89
2021/11/23 06:20:32;;;;;;;39.80;21.45;;;;;;;;;;4905152;29;20048;-89
2021/11/23 06:26:02;;;;;;;36.53;21.20;;;;;;;;;;4924075;29;20048;-89
2021/11/23 06:28:28;;;;;;;40.30;22.23;;;;;;;;;;4907164;29;20024;-89
2021/11/23 06:30:54;;;;;;;40.88;21.73;;;;;;;;;;4923587;29;20020;-89
2021/11/23 06:33:20;;;;;;;34.63;19.63;;;;;;;;;;4923740;29;20411;-89
2021/11/23 06:35:47;;;;;;;38.75;21.52;;;;;;;;;;4907112;29;20485;-89
2021/11/23 06:38:13;;;;;;;36.75;21.15;;;;;;;;;;4923568;29;20031;-89
2021/11/23 06:40:40;;;;;;;31.98;18.55;;;;;;;;;;4906586;29;20032;-89
2021/11/23 06:43:07;;;;;;;31.00;17.60;;;;;;;;;;4906983;29;20446;-89
2021/11/23 06:45:34;;;;;;;33.92;18.77;;;;;;;;;;4906903;29;20135;-89
2021/11/23 06:48:00;;;;;;;34.75;19.17;;;;;;;;;;4923361;29;20079;-90
2021/11/23 06:50:32;;;;;;;35.55;18.55;;;;;;;;;;4906828;29;20028;-89
2021/11/23 06:52:58;;;;;;;;;;;;;;;;;;4923853;29;20095;-89
2021/11/23 06:55:24;;;;;;;33.25;18.58;;;;;;;;;;4923396;29;19998;-90
2021/11/23 06:57:50;;;;;;;31.70;17.42;;;;;;;;;;4906561;29;20020;-89
2021/11/23 07:00:16;;;;;;;30.33;16.98;;;;;;;;;;4923527;29;20032;-90
2021/11/23 07:02:42;;;;;;;31.10;16.52;;;;;;;;;;4923559;29;20285;-90
2021/11/23 07:05:09;;;;;;;27.90;16.33;;;;;;;;;;4923667;29;20028;-89
2021/11/23 07:07:35;;;;;;;29.90;16.35;;;;;;;;;;4922751;29;20035;-89
2021/11/23 07:10:08;;;;;;;29.20;16.58;;;;;;;;;;4922167;29;20038;-91
2021/11/23 07:12:34;;;;;;;34.05;18.75;;;;;;;;;;4922832;29;20328;-89
2021/11/23 07:15:01;;;;;;;38.88;21.15;;;;;;;;;;4921607;29;20143;-89
2021/11/23 07:17:27;;;;;;;47.00;23.35;;;;;;;;;;4905583;29;20091;-89
2021/11/23 07:19:53;;;;;;;83.63;32.78;;;;;;;;;;4921432;29;20040;-90
2021/11/23 07:22:19;;;;;;;39.90;20.35;;;;;;;;;;4922908;29;20360;-90
2021/11/23 07:27:49;;;;;;;54.25;25.08;;;;;;;;;;4923064;29;20123;-87
2021/11/23 07:30:16;;;;;;;41.15;21.70;;;;;;;;;;4921486;29;20040;-89
2021/11/23 07:32:42;;;;;;;50.08;25.52;;;;;;;;;;4922986;29;20463;-89
2021/11/23 07:35:08;;;;;;;35.20;18.90;;;;;;;;;;4921580;29;20030;-89
2021/11/23 07:37:41;;;;;;;31.35;16.63;;;;;;;;;;4922770;29;20034;-89
2021/11/23 07:43:11;;;;;;;29.35;16.15;;;;;;;;;;4922777;29;20054;-91
2021/11/23 07:45:38;;;;;;;35.58;21.25;;;;;;;;;;4922279;29;20032;-92
2021/11/23 07:48:04;;;;;;;27.13;17.25;;;;;;;;;;4905879;29;20119;-91
2021/11/23 07:50:30;;;;;;;31.25;19.20;;;;;;;;;;4922364;29;20414;-91
2021/11/23 07:52:57;;;;;;;33.70;21.27;;;;;;;;;;4922026;29;20025;-90
2021/11/23 07:55:23;;;;;;;30.25;19.02;;;;;;;;;;4921215;29;20028;-92
2021/11/23 07:57:49;;;;;;;27.77;15.07;;;;;;;;;;4921383;29;20033;-90
2021/11/23 08:00:15;;;;;;;25.10;14.73;;;;;;;;;;4922247;29;20038;-90
2021/11/23 08:02:41;;;;;;;23.48;14.65;;;;;;;;;;4922106;29;20423;-89
2021/11/23 08:05:07;;;;;;;22.48;14.43;;;;;;;;;;4922396;29;20024;-87
2021/11/23 08:07:33;;;;;;;22.40;13.98;;;;;;;;;;4922385;29;20119;-89
2021/11/23 08:13:03;;;;;;;27.08;15.18;;;;;;;;;;4914479;29;20486;-90
2021/11/23 08:15:29;;;;;;;24.50;15.18;;;;;;;;;;4920658;29;20068;-91
2021/11/23 08:17:55;;;;;;;27.75;17.05;;;;;;;;;;4921870;29;20039;-88
2021/11/23 08:20:22;;;;;;;25.67;14.60;;;;;;;;;;4920681;29;20176;-88
2021/11/23 08:22:48;;;;;;;26.55;16.33;;;;;;;;;;4921848;29;20028;-89
2021/11/23 08:25:33;;;;;;;26.80;16.52;;;;;;;;;;4920571;29;20039;-88
2021/11/23 08:27:59;;;;;;;23.00;15.27;;;;;;;;;;4921209;29;20039;-88
2021/11/23 08:30:26;;;;;;;23.85;15.55;;;;;;;;;;4921183;29;20140;-88
2021/11/23 08:32:52;;;;;;;24.08;15.75;;;;;;;;;;4921773;29;20032;-87
2021/11/23 08:35:20;;;;;;;28.00;15.80;;;;;;;;;;4920698;29;20031;-90
2021/11/23 08:37:46;;;;;;;27.88;14.77;;;;;;;;;;4921856;29;20032;-89
2021/11/23 08:43:15;;;;;;;29.02;19.02;;;;;;;;;;4921795;29;20425;-88
2021/11/23 08:45:42;;;;;;;22.33;14.57;;;;;;;;;;4921608;29;20028;-89
2021/11/23 08:48:08;;;;;;;19.48;12.70;;;;;;;;;;4921441;29;20324;-90
2021/11/23 08:50:34;;;;;;;21.08;11.68;;;;;;;;;;4919961;29;20044;-90
2021/11/23 08:53:02;;;;;;;15.55;10.68;;;;;;;;;;4904834;29;20100;-86
2021/11/23 09:01:55;;;;;;;22.70;9.93;;;;;;;;;;4921339;29;20072;-89
2021/11/23 09:04:22;;;;;;;13.15;8.48;;;;;;;;;;4901424;29;20029;-89
2021/11/23 09:06:48;;;;;;;29.58;9.93;;;;;;;;;;4902486;29;20036;-88
2021/11/23 09:12:20;;;;;;;14.80;10.00;;;;;;;;;;4902607;29;20092;-89
2021/11/23 09:14:46;;;;;;;15.07;9.27;;;;;;;;;;4885310;29;20084;-89
2021/11/23 09:17:12;;;;;;;14.82;9.45;;;;;;;;;;4902941;29;20028;-89
2021/11/23 09:19:40;;;;;;;14.50;9.48;;;;;;;;;;4902117;29;20079;-90
2021/11/23 09:22:06;;;;;;;16.98;10.65;;;;;;;;;;4921209;29;20036;-89
2021/11/23 09:30:39;;;;;;;13.63;9.07;;;;;;;;;;4921305;29;20048;-89
2021/11/23 09:33:06;;;;;;;14.27;9.55;;;;;;;;;;4921198;29;20072;-90
2021/11/23 09:35:32;;;;;;;13.77;9.55;;;;;;;;;;4904171;29;20028;-89
2021/11/23 09:37:59;;;;;;;13.13;9.15;;;;;;;;;;4921241;29;20024;-88
2021/11/23 09:40:25;;;;;;;15.68;10.00;;;;;;;;;;4904398;29;20035;-89
2021/11/23 09:42:52;;;;;;;23.27;12.80;;;;;;;;;;4921821;29;20036;-88
2021/11/23 09:45:18;;;;;;;19.20;12.27;;;;;;;;;;4924937;29;20284;-89
2021/11/23 09:47:45;;;;;;;16.10;11.38;;;;;;;;;;4923631;29;20032;-89
2021/11/23 09:50:12;;;;;;;17.30;11.63;;;;;;;;;;4923734;29;20068;-89
2021/11/23 09:52:40;;;;;;;23.98;12.38;;;;;;;;;;4923020;29;20492;-90
2021/11/23 09:55:07;;;;;;;17.10;11.98;;;;;;;;;;4923530;29;20087;-91
2021/11/23 09:57:33;;;;;;;16.27;10.18;;;;;;;;;;4924766;29;20104;-89
2021/11/23 10:00:00;;;;;;;15.18;10.07;;;;;;;;;;4924623;29;20028;-90
2021/11/23 10:02:27;;;;;;;15.65;9.95;;;;;;;;;;4924293;29;20029;-90
2021/11/23 10:04:58;;;;;;;16.90;10.55;;;;;;;;;;4907498;29;20032;-93
2021/11/23 10:07:34;;;;;;;12.05;8.63;;;;;;;;;;4924076;29;20024;-87
2021/11/23 10:13:40;;;;;;;13.00;8.07;;;;;;;;;;4913167;29;20063;-92
2021/11/23 10:16:07;;;;;;;12.07;8.00;;;;;;;;;;4886800;29;20044;-89
2021/11/23 10:18:33;;;;;;;13.88;8.85;;;;;;;;;;4886546;29;20104;-94
2021/11/23 10:21:00;;;;;;;12.82;9.30;;;;;;;;;;4885259;29;20045;-94
2021/11/23 10:23:27;;;;;;;14.90;8.60;;;;;;;;;;4886453;29;20025;-93
2021/11/23 10:26:01;;;;;;;13.48;8.27;;;;;;;;;;4885185;29;20033;-93
2021/11/23 10:28:29;;;;;;;11.88;8.50;;;;;;;;;;4885351;29;20041;-91
2021/11/23 10:30:56;;;;;;;10.70;7.90;;;;;;;;;;4887612;29;20051;-90
2021/11/23 10:33:22;;;;;;;16.40;10.15;;;;;;;;;;4886412;29;20041;-91
2021/11/23 10:35:51;;;;;;;14.52;10.02;;;;;;;;;;4885269;29;20025;-89
2021/11/23 10:38:18;;;;;;;13.38;8.90;;;;;;;;;;4886545;29;20109;-90
2021/11/23 10:43:49;;;;;;;15.40;10.07;;;;;;;;;;4886211;29;20040;-91
2021/11/23 10:46:17;;;;;;;16.80;10.43;;;;;;;;;;4886160;29;20112;-91
2021/11/23 10:48:52;;;;;;;12.68;8.85;;;;;;;;;;4884971;29;20073;-90
2021/11/23 10:51:18;;;;;;;15.52;10.70;;;;;;;;;;4886173;29;20065;-90
2021/11/23 10:53:46;;;;;;;13.77;9.85;;;;;;;;;;4885529;29;20029;-90
2021/11/23 10:56:14;;;;;;;15.88;9.35;;;;;;;;;;4885895;29;20033;-89
2021/11/23 10:58:41;;;;;;;12.75;8.32;;;;;;;;;;4886101;29;20104;-90
2021/11/23 11:01:09;;;;;;;15.10;8.75;;;;;;;;;;4886036;29;20040;-91
2021/11/23 11:03:36;;;;;;;17.48;10.70;;;;;;;;;;4885620;29;20424;-89
2021/11/23 11:06:03;;;;;;;15.43;9.88;;;;;;;;;;4884635;29;20029;-89
2021/11/23 11:08:30;;;;;;;12.10;8.73;;;;;;;;;;4884069;29;20040;-91
2021/11/23 11:10:56;;;;;;;15.60;9.32;;;;;;;;;;4884663;29;20025;-90
2021/11/23 11:13:24;;;;;;;12.38;8.93;;;;;;;;;;4884519;29;20051;-91
2021/11/23 11:15:52;;;;;;;16.15;9.43;;;;;;;;;;4918777;29;20079;-88
2021/11/23 11:18:20;;;;;;;18.38;10.38;;;;;;;;;;4922956;29;20028;-90
2021/11/23 11:20:50;;;;;;;16.42;8.63;;;;;;;;;;4906860;29;20250;-93
2021/11/23 11:23:25;;;;;;;10.15;7.43;;;;;;;;;;4922717;29;20043;-91
2021/11/23 11:26:25;;;;;;;10.00;7.20;;;;;;;;;;4923071;29;20036;-92
2021/11/23 11:28:51;;;;;;;11.43;8.45;;;;;;;;;;4922805;29;20442;-92
2021/11/23 11:31:30;;;;;;;12.55;7.88;;;;;;;;;;4922969;29;20044;-91
2021/11/23 11:34:15;;;;;;;14.23;8.73;;;;;;;;;;4905827;29;20032;-89
2021/11/23 11:36:42;;;;;;;13.45;7.60;;;;;;;;;;4923000;29;20319;-89
2021/11/23 11:39:08;;;;;;;15.07;7.88;;;;;;;;;;4923008;29;20032;-91
2021/11/23 11:44:42;;;;;;;13.90;9.23;;;;;;;;;;4922794;29;20063;-92
2021/11/23 11:47:13;;;;;;;12.35;8.93;;;;;;;;;;4905710;29;20036;-92
2021/11/23 11:49:55;;;;;;;17.02;9.23;;;;;;;;;;4922749;29;20032;-93
2021/11/23 11:52:29;;;;;;;15.68;8.73;;;;;;;;;;4905747;29;20332;-92
2021/11/23 11:55:13;;;;;;;12.35;8.70;;;;;;;;;;4922277;29;20124;-91
2021/11/23 11:57:44;;;;;;;10.95;7.80;;;;;;;;;;4905303;29;20036;-93
2021/11/23 12:00:22;;;;;;;15.20;10.45;;;;;;;;;;4905802;29;20372;-91
2021/11/23 12:02:48;;;;;;;15.05;9.85;;;;;;;;;;4905593;29;20123;-89
2021/11/23 12:05:16;;;;;;;15.68;9.93;;;;;;;;;;4921498;29;20035;-88
2021/11/23 12:07:46;;;;;;;17.20;9.40;;;;;;;;;;4921996;29;20024;-88
2021/11/23 12:10:20;;;;;;;16.88;10.38;;;;;;;;;;4922335;29;20031;-89
2021/11/23 12:13:00;;;;;;;17.75;10.35;;;;;;;;;;4904819;29;20039;-88
2021/11/23 12:15:34;;;;;;;21.27;12.70;;;;;;;;;;4902264;29;20082;-88
2021/11/23 12:18:05;;;;;;;18.60;10.27;;;;;;;;;;4902994;29;20107;-88
2021/11/23 12:20:35;;;;;;;15.07;9.43;;;;;;;;;;4903388;29;20031;-87
2021/11/23 12:23:16;;;;;;;16.92;9.98;;;;;;;;;;4901946;29;20024;-89
2021/11/23 12:28:55;;;;;;;14.95;8.80;;;;;;;;;;4903150;29;20035;-88
2021/11/23 12:31:22;;;;;;;23.42;10.70;;;;;;;;;;4903085;29;20024;-89
2021/11/23 12:33:52;;;;;;;14.00;9.73;;;;;;;;;;4903143;29;20348;-89
2021/11/23 12:36:22;;;;;;;16.42;10.48;;;;;;;;;;4901912;29;20353;-89
2021/11/23 12:38:49;;;;;;;18.45;10.95;;;;;;;;;;4902248;29;20024;-89
2021/11/23 12:41:17;;;;;;;18.15;10.80;;;;;;;;;;4901794;29;20052;-87
2021/11/23 12:43:43;;;;;;;16.42;10.20;;;;;;;;;;4902511;29;20028;-87
2021/11/23 12:46:11;;;;;;;14.88;9.27;;;;;;;;;;4902443;29;20049;-87
2021/11/23 12:48:37;;;;;;;13.80;8.80;;;;;;;;;;4902432;29;20036;-87
2021/11/23 12:51:16;;;;;;;14.75;9.38;;;;;;;;;;4901725;29;20424;-87
2021/11/23 12:54:11;;;;;;;13.68;9.23;;;;;;;;;;4898133;29;20028;-87
2021/11/23 12:56:43;;;;;;;15.35;8.73;;;;;;;;;;4811641;29;20042;-89
2021/11/23 12:59:28;;;;;;;13.35;8.90;;;;;;;;;;4811977;29;20052;-88
2021/11/23 13:01:54;;;;;;;14.13;9.63;;;;;;;;;;4827393;29;20035;-89
2021/11/23 13:04:20;;;;;;;15.68;10.40;;;;;;;;;;4811870;29;20136;-88
2021/11/23 13:07:04;;;;;;;14.15;10.05;;;;;;;;;;4811757;29;20043;-88
2021/11/23 13:15:39;;;;;;;14.57;8.98;;;;;;;;;;4826941;29;20080;-87
2021/11/23 13:18:08;;;;;;;15.43;9.40;;;;;;;;;;4829465;29;20034;-88
2021/11/23 13:20:35;;;;;;;19.85;9.18;;;;;;;;;;4815548;29;20045;-88
2021/11/23 13:23:11;;;;;;;15.60;8.95;;;;;;;;;;4815315;29;20079;-89
2021/11/23 13:25:38;;;;;;;13.48;9.75;;;;;;;;;;4815103;29;20031;-88
2021/11/23 13:28:05;;;;;;;12.68;8.88;;;;;;;;;;4830307;29;20042;-88
2021/11/23 13:30:49;;;;;;;11.23;8.20;;;;;;;;;;4815290;29;20587;-88
2021/11/23 13:33:31;;;;;;;11.60;8.65;;;;;;;;;;4876299;29;20052;-88
2021/11/23 13:35:57;;;;;;;15.25;9.77;;;;;;;;;;4906140;29;20040;-87
2021/11/23 13:38:26;;;;;;;12.98;9.50;;;;;;;;;;4905922;29;20040;-88
2021/11/23 13:40:52;;;;;;;12.63;8.85;;;;;;;;;;4906273;29;20032;-88
2021/11/23 13:43:18;;;;;;;12.52;8.73;;;;;;;;;;4906139;29;20044;-89
2021/11/23 13:46:01;;;;;;;12.50;8.13;;;;;;;;;;4904481;29;20040;-88
2021/11/23 13:48:27;;;;;;;14.75;9.82;;;;;;;;;;4904718;29;20210;-89
2021/11/23 13:50:57;;;;;;;14.82;8.82;;;;;;;;;;4905485;29;20412;-89
2021/11/23 13:53:23;;;;;;;17.40;9.00;;;;;;;;;;4904807;29;20025;-88
2021/11/23 13:55:51;;;;;;;13.73;9.40;;;;;;;;;;4905779;29;20028;-89
2021/11/23 13:58:17;;;;;;;16.25;9.50;;;;;;;;;;4903897;29;20116;-89
2021/11/23 14:00:43;;;;;;;15.23;10.27;;;;;;;;;;4905690;29;20033;-88
2021/11/23 14:03:13;;;;;;;22.05;13.00;;;;;;;;;;4905193;29;20024;-88
2021/11/23 14:05:42;;;;;;;26.08;15.75;;;;;;;;;;4904385;29;20048;-87
2021/11/23 14:08:21;;;;;;;22.00;13.20;;;;;;;;;;4904457;29;20412;-88
2021/11/23 14:10:54;;;;;;;25.85;15.95;;;;;;;;;;4904432;29;20120;-87
2021/11/23 14:13:21;;;;;;;44.40;17.67;;;;;;;;;;4905535;29;20029;-87
2021/11/23 14:15:47;;;;;;;68.25;34.20;;;;;;;;;;4904171;29;20466;-88
2021/11/23 14:18:20;;;;;;;49.28;26.88;;;;;;;;;;4905460;29;20024;-87
2021/11/23 14:23:33;;;;;;;30.48;19.35;;;;;;;;;;4905159;29;20073;-87
2021/11/23 14:25:59;;;;;;;33.95;19.92;;;;;;;;;;4847706;29;20042;-87
2021/11/23 14:28:25;;;;;;;33.05;19.33;;;;;;;;;;4846691;29;20045;-87
2021/11/23 14:30:52;;;;;;;25.98;14.45;;;;;;;;;;4847373;29;20037;-87
2021/11/23 14:33:22;;;;;;;19.73;13.02;;;;;;;;;;4832228;29;20034;-87
2021/11/23 14:35:49;;;;;;;19.77;12.00;;;;;;;;;;4832087;29;20034;-87
2021/11/23 14:38:15;;;;;;;19.50;12.23;;;;;;;;;;4847494;29;20061;-88
2021/11/23 14:40:41;;;;;;;19.63;11.75;;;;;;;;;;4847604;29;20030;-89
2021/11/23 14:43:07;;;;;;;16.88;11.60;;;;;;;;;;4832128;29;20165;-89
2021/11/23 14:45:33;;;;;;;18.20;11.20;;;;;;;;;;4847426;29;20037;-89
2021/11/23 14:47:59;;;;;;;19.48;11.60;;;;;;;;;;4831916;29;20045;-89
2021/11/23 14:50:25;;;;;;;43.13;22.90;;;;;;;;;;4831979;29;20797;-88
2021/11/23 14:52:51;;;;;;;81.47;42.58;;;;;;;;;;4847453;29;20045;-89
2021/11/23 14:55:17;;;;;;;45.20;29.48;;;;;;;;;;4847213;29;20083;-89
2021/11/23 14:57:43;;;;;;;43.42;28.35;;;;;;;;;;4831751;29;20034;-90
2021/11/23 15:00:10;;;;;;;44.05;27.65;;;;;;;;;;4847153;29;20041;-89
2021/11/23 15:02:36;;;;;;;41.53;26.95;;;;;;;;;;4853442;29;20032;-89
2021/11/23 15:05:02;;;;;;;37.45;25.40;;;;;;;;;;4904107;29;20104;-88
2021/11/23 15:07:28;;;;;;;33.47;21.48;;;;;;;;;;4903792;29;20029;-89
2021/11/23 15:09:55;;;;;;;29.40;18.00;;;;;;;;;;4903383;29;20029;-89
2021/11/23 15:15:27;;;;;;;23.42;16.77;;;;;;;;;;4902329;29;20055;-89
2021/11/23 15:17:53;;;;;;;25.20;16.23;;;;;;;;;;4885303;29;20328;-89
2021/11/23 15:20:20;;;;;;;28.48;17.08;;;;;;;;;;4885300;29;20089;-90
2021/11/23 15:22:47;;;;;;;32.90;18.92;;;;;;;;;;4884771;29;20040;-89
2021/11/23 15:25:15;;;;;;;36.03;20.25;;;;;;;;;;4884025;29;20045;-89
2021/11/23 15:28:05;;;;;;;58.58;29.20;;;;;;;;;;4885163;29;20469;-88
2021/11/23 15:30:32;;;;;;;60.95;30.13;;;;;;;;;;4885429;29;20041;-89
2021/11/23 15:32:58;;;;;;;59.80;29.85;;;;;;;;;;4884189;29;20077;-89
2021/11/23 15:35:24;;;;;;;62.45;33.13;;;;;;;;;;4883882;29;20020;-90
2021/11/23 15:37:50;;;;;;;70.43;40.15;;;;;;;;;;4885213;29;20025;-90
2021/11/23 15:40:17;;;;;;;169.23;89.45;;;;;;;;;;4885094;29;20159;-89
2021/11/23 15:42:43;;;;;;;195.48;99.57;;;;;;;;;;4885349;29;20083;-88
2021/11/23 15:45:09;;;;;;;216.57;107.07;;;;;;;;;;4883882;29;20080;-88
2021/11/23 15:47:36;;;;;;;151.77;78.07;;;;;;;;;;4885079;29;20404;-87
2021/11/23 15:50:02;;;;;;;95.50;50.70;;;;;;;;;;4884083;29;20328;-93
2021/11/23 15:52:28;;;;;;;117.10;63.03;;;;;;;;;;4885122;29;20021;-94
2021/11/23 15:54:55;;;;;;;131.30;74.05;;;;;;;;;;4883581;29;20037;-92
2021/11/23 15:57:24;;;;;;;156.88;88.55;;;;;;;;;;4884851;29;20032;-95
2021/11/23 15:59:54;;;;;;;163.20;92.68;;;;;;;;;;4884810;29;20429;-94
2021/11/23 16:02:20;;;;;;;113.10;64.80;;;;;;;;;;4883995;29;20069;-94
2021/11/23 16:04:47;;;;;;;121.22;70.45;;;;;;;;;;4885093;29;20029;-89
2021/11/23 16:07:15;;;;;;;85.38;53.67;;;;;;;;;;4883633;29;20033;-89